sensor_id;sensor_type;location;lat;lon;timestamp;P1;durP1;ratioP1;P2;durP2;ratioP2
16922;SDS011;8578;50.938;13.556;2022-10-16T00:01:38;1.07;;;0.90;;
16922;SDS011;8578;50.938;13.556;2022-10-16T00:04:05;3.43;;;1.00;;
16922;SDS011;8578;50.938;13.556;2022-10-16T00:06:33;1.30;;;1.00;;
16922;SDS011;8578;50.938;13.556;2022-10-16T00:09:00;1.10;;;1.00;;
16922;SDS011;8578;50.938;13.556;2022-10-16T00:11:29;1.20;;;1.10;;
16922;SDS011;8578;50.938;13.556;2022-10-16T00:13:57;1.70;;;0.90;;
16922;SDS011;8578;50.938;13.556;2022-10-16T00:16:27;1.40;;;1.27;;
16922;SDS011;8578;50.938;13.556;2022-10-16T00:18:54;1.30;;;1.20;;
16922;SDS011;8578;50.938;13.556;2022-10-16T00:21:23;2.63;;;1.10;;
16922;SDS011;8578;50.938;13.556;2022-10-16T00:23:51;1.37;;;1.20;;
16922;SDS011;8578;50.938;13.556;2022-10-16T00:26:19;2.57;;;1.20;;
16922;SDS011;8578;50.938;13.556;2022-10-16T00:28:47;1.43;;;1.03;;
16922;SDS011;8578;50.938;13.556;2022-10-16T00:31:15;1.40;;;1.30;;
16922;SDS011;8578;50.938;13.556;2022-10-16T00:33:45;1.50;;;1.40;;
16922;SDS011;8578;50.938;13.556;2022-10-16T00:36:13;1.90;;;1.40;;
16922;SDS011;8578;50.938;13.556;2022-10-16T00:38:41;1.93;;;1.17;;
16922;SDS011;8578;50.938;13.556;2022-10-16T00:41:10;1.97;;;1.37;;
16922;SDS011;8578;50.938;13.556;2022-10-16T00:43:39;1.50;;;1.40;;
16922;SDS011;8578;50.938;13.556;2022-10-16T00:46:11;1.40;;;1.20;;
16922;SDS011;8578;50.938;13.556;2022-10-16T00:48:40;3.37;;;1.50;;
16922;SDS011;8578;50.938;13.556;2022-10-16T00:51:10;3.73;;;1.63;;
16922;SDS011;8578;50.938;13.556;2022-10-16T00:53:38;1.53;;;1.43;;
16922;SDS011;8578;50.938;13.556;2022-10-16T00:56:06;1.43;;;1.30;;
16922;SDS011;8578;50.938;13.556;2022-10-16T00:58:33;1.50;;;1.30;;
16922;SDS011;8578;50.938;13.556;2022-10-16T01:01:00;1.30;;;1.20;;
16922;SDS011;8578;50.938;13.556;2022-10-16T01:03:29;1.57;;;1.13;;
16922;SDS011;8578;50.938;13.556;2022-10-16T01:06:00;2.57;;;1.30;;
16922;SDS011;8578;50.938;13.556;2022-10-16T01:08:32;3.10;;;1.30;;
16922;SDS011;8578;50.938;13.556;2022-10-16T01:11:03;1.10;;;1.00;;
16922;SDS011;8578;50.938;13.556;2022-10-16T01:13:35;1.20;;;1.10;;
16922;SDS011;8578;50.938;13.556;2022-10-16T01:16:05;1.20;;;1.00;;
16922;SDS011;8578;50.938;13.556;2022-10-16T01:18:34;1.10;;;1.00;;
16922;SDS011;8578;50.938;13.556;2022-10-16T01:21:03;1.37;;;1.17;;
16922;SDS011;8578;50.938;13.556;2022-10-16T01:23:36;0.93;;;0.80;;
16922;SDS011;8578;50.938;13.556;2022-10-16T01:26:10;1.43;;;0.90;;
16922;SDS011;8578;50.938;13.556;2022-10-16T01:28:43;1.43;;;0.70;;
16922;SDS011;8578;50.938;13.556;2022-10-16T01:31:12;0.77;;;0.70;;
16922;SDS011;8578;50.938;13.556;2022-10-16T01:33:42;0.70;;;0.63;;
16922;SDS011;8578;50.938;13.556;2022-10-16T01:36:11;1.17;;;0.77;;
16922;SDS011;8578;50.938;13.556;2022-10-16T01:38:40;1.67;;;0.70;;
16922;SDS011;8578;50.938;13.556;2022-10-16T01:41:10;0.80;;;0.70;;
16922;SDS011;8578;50.938;13.556;2022-10-16T01:43:40;0.60;;;0.60;;
16922;SDS011;8578;50.938;13.556;2022-10-16T01:46:10;0.77;;;0.70;;
16922;SDS011;8578;50.938;13.556;2022-10-16T01:48:37;0.80;;;0.70;;
16922;SDS011;8578;50.938;13.556;2022-10-16T01:51:06;1.03;;;0.60;;
16922;SDS011;8578;50.938;13.556;2022-10-16T01:53:35;0.70;;;0.70;;
16922;SDS011;8578;50.938;13.556;2022-10-16T01:56:04;2.13;;;1.00;;
16922;SDS011;8578;50.938;13.556;2022-10-16T01:58:33;0.90;;;0.90;;
16922;SDS011;8578;50.938;13.556;2022-10-16T02:01:03;4.93;;;0.90;;
16922;SDS011;8578;50.938;13.556;2022-10-16T02:03:33;0.80;;;0.70;;
16922;SDS011;8578;50.938;13.556;2022-10-16T02:06:01;1.20;;;0.90;;
16922;SDS011;8578;50.938;13.556;2022-10-16T02:08:29;2.07;;;1.00;;
16922;SDS011;8578;50.938;13.556;2022-10-16T02:10:59;1.20;;;0.97;;
16922;SDS011;8578;50.938;13.556;2022-10-16T02:13:28;1.57;;;1.47;;
16922;SDS011;8578;50.938;13.556;2022-10-16T02:15:57;1.20;;;1.10;;
16922;SDS011;8578;50.938;13.556;2022-10-16T02:18:24;1.37;;;1.00;;
16922;SDS011;8578;50.938;13.556;2022-10-16T02:20:57;1.40;;;1.30;;
16922;SDS011;8578;50.938;13.556;2022-10-16T02:23:28;1.33;;;1.23;;
16922;SDS011;8578;50.938;13.556;2022-10-16T02:25:57;1.33;;;1.23;;
16922;SDS011;8578;50.938;13.556;2022-10-16T02:28:27;1.20;;;1.10;;
16922;SDS011;8578;50.938;13.556;2022-10-16T02:30:57;1.80;;;1.40;;
16922;SDS011;8578;50.938;13.556;2022-10-16T02:33:25;1.20;;;1.10;;
16922;SDS011;8578;50.938;13.556;2022-10-16T02:35:54;1.30;;;1.20;;
16922;SDS011;8578;50.938;13.556;2022-10-16T02:38:23;1.70;;;1.30;;
16922;SDS011;8578;50.938;13.556;2022-10-16T02:40:52;2.37;;;1.20;;
16922;SDS011;8578;50.938;13.556;2022-10-16T02:43:19;2.20;;;1.23;;
16922;SDS011;8578;50.938;13.556;2022-10-16T02:45:47;1.10;;;1.00;;
16922;SDS011;8578;50.938;13.556;2022-10-16T02:48:14;1.30;;;1.20;;
16922;SDS011;8578;50.938;13.556;2022-10-16T02:50:42;1.30;;;1.00;;
16922;SDS011;8578;50.938;13.556;2022-10-16T02:53:09;1.87;;;1.30;;
16922;SDS011;8578;50.938;13.556;2022-10-16T02:55:38;2.07;;;1.10;;
16922;SDS011;8578;50.938;13.556;2022-10-16T02:58:06;1.10;;;0.90;;
16922;SDS011;8578;50.938;13.556;2022-10-16T03:00:33;0.90;;;0.90;;
16922;SDS011;8578;50.938;13.556;2022-10-16T03:03:01;1.37;;;0.93;;
16922;SDS011;8578;50.938;13.556;2022-10-16T03:05:28;2.23;;;1.00;;
16922;SDS011;8578;50.938;13.556;2022-10-16T03:07:56;1.23;;;1.10;;
16922;SDS011;8578;50.938;13.556;2022-10-16T03:10:26;2.23;;;1.03;;
16922;SDS011;8578;50.938;13.556;2022-10-16T03:12:55;1.23;;;1.13;;
16922;SDS011;8578;50.938;13.556;2022-10-16T03:15:22;1.17;;;1.00;;
16922;SDS011;8578;50.938;13.556;2022-10-16T03:17:50;2.80;;;1.10;;
16922;SDS011;8578;50.938;13.556;2022-10-16T03:20:17;2.70;;;1.00;;
16922;SDS011;8578;50.938;13.556;2022-10-16T03:22:45;1.07;;;0.97;;
16922;SDS011;8578;50.938;13.556;2022-10-16T03:25:12;1.40;;;1.00;;
16922;SDS011;8578;50.938;13.556;2022-10-16T03:27:40;0.80;;;0.80;;
16922;SDS011;8578;50.938;13.556;2022-10-16T03:30:09;3.43;;;1.00;;
16922;SDS011;8578;50.938;13.556;2022-10-16T03:32:37;1.27;;;1.17;;
16922;SDS011;8578;50.938;13.556;2022-10-16T03:35:05;1.53;;;0.83;;
16922;SDS011;8578;50.938;13.556;2022-10-16T03:37:32;1.60;;;1.07;;
16922;SDS011;8578;50.938;13.556;2022-10-16T03:40:00;2.70;;;1.00;;
16922;SDS011;8578;50.938;13.556;2022-10-16T03:42:27;1.10;;;1.00;;
16922;SDS011;8578;50.938;13.556;2022-10-16T03:44:55;1.00;;;0.90;;
16922;SDS011;8578;50.938;13.556;2022-10-16T03:47:25;0.77;;;0.73;;
16922;SDS011;8578;50.938;13.556;2022-10-16T03:49:53;1.03;;;0.90;;
16922;SDS011;8578;50.938;13.556;2022-10-16T03:52:21;1.07;;;0.97;;
16922;SDS011;8578;50.938;13.556;2022-10-16T03:54:48;1.50;;;0.90;;
16922;SDS011;8578;50.938;13.556;2022-10-16T03:57:16;1.00;;;0.90;;
16922;SDS011;8578;50.938;13.556;2022-10-16T03:59:43;1.30;;;0.97;;
16922;SDS011;8578;50.938;13.556;2022-10-16T04:02:11;2.87;;;0.70;;
16922;SDS011;8578;50.938;13.556;2022-10-16T04:04:39;0.73;;;0.70;;
16922;SDS011;8578;50.938;13.556;2022-10-16T04:07:07;1.00;;;0.90;;
16922;SDS011;8578;50.938;13.556;2022-10-16T04:09:34;1.40;;;0.80;;
16922;SDS011;8578;50.938;13.556;2022-10-16T04:12:02;1.83;;;0.70;;
16922;SDS011;8578;50.938;13.556;2022-10-16T04:14:30;2.80;;;1.10;;
16922;SDS011;8578;50.938;13.556;2022-10-16T04:16:57;1.07;;;0.80;;
16922;SDS011;8578;50.938;13.556;2022-10-16T04:19:25;0.97;;;0.83;;
16922;SDS011;8578;50.938;13.556;2022-10-16T04:21:54;1.13;;;0.73;;
16922;SDS011;8578;50.938;13.556;2022-10-16T04:24:22;0.73;;;0.70;;
16922;SDS011;8578;50.938;13.556;2022-10-16T04:26:49;1.33;;;0.80;;
16922;SDS011;8578;50.938;13.556;2022-10-16T04:29:17;1.37;;;0.80;;
16922;SDS011;8578;50.938;13.556;2022-10-16T04:31:44;0.97;;;0.60;;
16922;SDS011;8578;50.938;13.556;2022-10-16T04:34:12;2.93;;;0.80;;
16922;SDS011;8578;50.938;13.556;2022-10-16T04:36:39;1.73;;;0.93;;
16922;SDS011;8578;50.938;13.556;2022-10-16T04:39:08;0.70;;;0.60;;
16922;SDS011;8578;50.938;13.556;2022-10-16T04:41:36;0.80;;;0.70;;
16922;SDS011;8578;50.938;13.556;2022-10-16T04:44:03;1.00;;;0.80;;
16922;SDS011;8578;50.938;13.556;2022-10-16T04:46:30;0.80;;;0.80;;
16922;SDS011;8578;50.938;13.556;2022-10-16T04:48:58;1.90;;;0.80;;
16922;SDS011;8578;50.938;13.556;2022-10-16T04:51:25;1.03;;;0.93;;
16922;SDS011;8578;50.938;13.556;2022-10-16T04:53:54;1.80;;;0.80;;
16922;SDS011;8578;50.938;13.556;2022-10-16T04:56:22;1.27;;;0.80;;
16922;SDS011;8578;50.938;13.556;2022-10-16T04:58:50;0.83;;;0.70;;
16922;SDS011;8578;50.938;13.556;2022-10-16T05:01:18;1.30;;;0.67;;
16922;SDS011;8578;50.938;13.556;2022-10-16T05:03:45;2.87;;;0.70;;
16922;SDS011;8578;50.938;13.556;2022-10-16T05:06:13;0.80;;;0.80;;
16922;SDS011;8578;50.938;13.556;2022-10-16T05:08:40;0.80;;;0.70;;
16922;SDS011;8578;50.938;13.556;2022-10-16T05:11:08;2.37;;;0.83;;
16922;SDS011;8578;50.938;13.556;2022-10-16T05:13:37;0.80;;;0.80;;
16922;SDS011;8578;50.938;13.556;2022-10-16T05:16:04;0.97;;;0.87;;
16922;SDS011;8578;50.938;13.556;2022-10-16T05:18:32;1.90;;;0.83;;
16922;SDS011;8578;50.938;13.556;2022-10-16T05:20:59;1.70;;;0.80;;
16922;SDS011;8578;50.938;13.556;2022-10-16T05:23:27;1.20;;;0.90;;
16922;SDS011;8578;50.938;13.556;2022-10-16T05:25:55;1.77;;;0.80;;
16922;SDS011;8578;50.938;13.556;2022-10-16T05:28:24;1.20;;;0.80;;
16922;SDS011;8578;50.938;13.556;2022-10-16T05:30:53;0.80;;;0.80;;
16922;SDS011;8578;50.938;13.556;2022-10-16T05:33:21;1.17;;;0.90;;
16922;SDS011;8578;50.938;13.556;2022-10-16T05:35:49;1.70;;;1.00;;
16922;SDS011;8578;50.938;13.556;2022-10-16T05:38:17;1.07;;;0.97;;
16922;SDS011;8578;50.938;13.556;2022-10-16T05:40:50;1.03;;;0.93;;
16922;SDS011;8578;50.938;13.556;2022-10-16T05:43:17;1.17;;;1.07;;
16922;SDS011;8578;50.938;13.556;2022-10-16T05:45:54;1.10;;;1.00;;
16922;SDS011;8578;50.938;13.556;2022-10-16T05:48:21;0.90;;;0.90;;
16922;SDS011;8578;50.938;13.556;2022-10-16T05:50:55;1.17;;;1.07;;
16922;SDS011;8578;50.938;13.556;2022-10-16T05:53:23;4.07;;;1.00;;
16922;SDS011;8578;50.938;13.556;2022-10-16T05:55:52;2.40;;;0.90;;
16922;SDS011;8578;50.938;13.556;2022-10-16T05:58:19;1.10;;;1.00;;
16922;SDS011;8578;50.938;13.556;2022-10-16T06:00:53;2.13;;;1.10;;
16922;SDS011;8578;50.938;13.556;2022-10-16T06:03:22;0.93;;;0.90;;
16922;SDS011;8578;50.938;13.556;2022-10-16T06:05:49;2.17;;;1.00;;
16922;SDS011;8578;50.938;13.556;2022-10-16T06:08:17;4.07;;;0.90;;
16922;SDS011;8578;50.938;13.556;2022-10-16T06:10:45;0.90;;;0.90;;
16922;SDS011;8578;50.938;13.556;2022-10-16T06:13:13;1.00;;;0.90;;
16922;SDS011;8578;50.938;13.556;2022-10-16T06:15:41;1.10;;;0.77;;
16922;SDS011;8578;50.938;13.556;2022-10-16T06:18:10;0.70;;;0.60;;
16922;SDS011;8578;50.938;13.556;2022-10-16T06:20:38;1.37;;;0.80;;
16922;SDS011;8578;50.938;13.556;2022-10-16T06:23:06;0.60;;;0.60;;
16922;SDS011;8578;50.938;13.556;2022-10-16T06:25:33;0.60;;;0.43;;
16922;SDS011;8578;50.938;13.556;2022-10-16T06:28:01;0.60;;;0.60;;
16922;SDS011;8578;50.938;13.556;2022-10-16T06:30:28;2.50;;;0.50;;
16922;SDS011;8578;50.938;13.556;2022-10-16T06:32:55;1.00;;;0.50;;
16922;SDS011;8578;50.938;13.556;2022-10-16T06:35:24;1.80;;;0.60;;
16922;SDS011;8578;50.938;13.556;2022-10-16T06:37:52;0.40;;;0.40;;
16922;SDS011;8578;50.938;13.556;2022-10-16T06:40:20;0.60;;;0.30;;
16922;SDS011;8578;50.938;13.556;2022-10-16T06:42:47;1.60;;;0.30;;
16922;SDS011;8578;50.938;13.556;2022-10-16T06:45:14;2.73;;;0.37;;
16922;SDS011;8578;50.938;13.556;2022-10-16T06:47:42;0.50;;;0.30;;
16922;SDS011;8578;50.938;13.556;2022-10-16T06:50:09;1.50;;;0.33;;
16922;SDS011;8578;50.938;13.556;2022-10-16T06:52:39;0.60;;;0.40;;
16922;SDS011;8578;50.938;13.556;2022-10-16T06:55:06;0.93;;;0.40;;
16922;SDS011;8578;50.938;13.556;2022-10-16T06:57:34;1.57;;;0.30;;
16922;SDS011;8578;50.938;13.556;2022-10-16T07:00:02;0.67;;;0.40;;
16922;SDS011;8578;50.938;13.556;2022-10-16T07:02:30;0.30;;;0.20;;
16922;SDS011;8578;50.938;13.556;2022-10-16T07:04:57;7.50;;;0.53;;
16922;SDS011;8578;50.938;13.556;2022-10-16T07:07:25;0.60;;;0.30;;
16922;SDS011;8578;50.938;13.556;2022-10-16T07:09:54;0.20;;;0.13;;
16922;SDS011;8578;50.938;13.556;2022-10-16T07:12:21;0.43;;;0.30;;
16922;SDS011;8578;50.938;13.556;2022-10-16T07:14:49;0.73;;;0.30;;
16922;SDS011;8578;50.938;13.556;2022-10-16T07:17:18;0.20;;;0.20;;
16922;SDS011;8578;50.938;13.556;2022-10-16T07:19:45;0.50;;;0.20;;
16922;SDS011;8578;50.938;13.556;2022-10-16T07:22:13;0.10;;;0.10;;
16922;SDS011;8578;50.938;13.556;2022-10-16T07:24:40;1.23;;;0.20;;
16922;SDS011;8578;50.938;13.556;2022-10-16T07:27:14;0.50;;;0.20;;
16922;SDS011;8578;50.938;13.556;2022-10-16T07:29:43;1.37;;;0.30;;
16922;SDS011;8578;50.938;13.556;2022-10-16T07:32:10;0.20;;;0.20;;
16922;SDS011;8578;50.938;13.556;2022-10-16T07:34:37;0.50;;;0.30;;
16922;SDS011;8578;50.938;13.556;2022-10-16T07:37:05;1.33;;;0.27;;
16922;SDS011;8578;50.938;13.556;2022-10-16T07:39:33;0.97;;;0.20;;
16922;SDS011;8578;50.938;13.556;2022-10-16T07:42:00;1.90;;;0.40;;
16922;SDS011;8578;50.938;13.556;2022-10-16T07:44:29;1.20;;;0.40;;
16922;SDS011;8578;50.938;13.556;2022-10-16T07:46:57;1.60;;;0.50;;
16922;SDS011;8578;50.938;13.556;2022-10-16T07:49:25;0.80;;;0.70;;
16922;SDS011;8578;50.938;13.556;2022-10-16T07:51:52;1.13;;;0.80;;
16922;SDS011;8578;50.938;13.556;2022-10-16T07:54:20;1.37;;;0.80;;
16922;SDS011;8578;50.938;13.556;2022-10-16T07:56:47;2.67;;;1.00;;
16922;SDS011;8578;50.938;13.556;2022-10-16T07:59:15;1.17;;;1.03;;
16922;SDS011;8578;50.938;13.556;2022-10-16T08:01:44;1.10;;;1.00;;
16922;SDS011;8578;50.938;13.556;2022-10-16T08:04:11;1.90;;;0.97;;
16922;SDS011;8578;50.938;13.556;2022-10-16T08:06:39;1.63;;;0.90;;
16922;SDS011;8578;50.938;13.556;2022-10-16T08:09:07;1.33;;;1.07;;
16922;SDS011;8578;50.938;13.556;2022-10-16T08:11:35;1.60;;;1.00;;
16922;SDS011;8578;50.938;13.556;2022-10-16T08:14:03;3.17;;;0.83;;
16922;SDS011;8578;50.938;13.556;2022-10-16T08:16:30;4.73;;;0.90;;
16922;SDS011;8578;50.938;13.556;2022-10-16T08:18:59;2.80;;;0.70;;
16922;SDS011;8578;50.938;13.556;2022-10-16T08:21:26;0.60;;;0.60;;
16922;SDS011;8578;50.938;13.556;2022-10-16T08:23:54;1.33;;;0.90;;
16922;SDS011;8578;50.938;13.556;2022-10-16T08:26:24;1.80;;;1.00;;
16922;SDS011;8578;50.938;13.556;2022-10-16T08:28:52;3.10;;;1.00;;
16922;SDS011;8578;50.938;13.556;2022-10-16T08:31:20;0.63;;;0.60;;
16922;SDS011;8578;50.938;13.556;2022-10-16T08:33:48;1.40;;;0.60;;
16922;SDS011;8578;50.938;13.556;2022-10-16T08:36:17;0.63;;;0.63;;
16922;SDS011;8578;50.938;13.556;2022-10-16T08:38:46;2.10;;;0.50;;
16922;SDS011;8578;50.938;13.556;2022-10-16T08:41:20;0.90;;;0.60;;
16922;SDS011;8578;50.938;13.556;2022-10-16T08:43:55;1.13;;;0.60;;
16922;SDS011;8578;50.938;13.556;2022-10-16T08:46:32;1.20;;;0.60;;
16922;SDS011;8578;50.938;13.556;2022-10-16T08:49:02;0.70;;;0.60;;
16922;SDS011;8578;50.938;13.556;2022-10-16T08:51:32;0.77;;;0.60;;
16922;SDS011;8578;50.938;13.556;2022-10-16T08:54:04;0.70;;;0.60;;
16922;SDS011;8578;50.938;13.556;2022-10-16T08:56:32;0.63;;;0.40;;
16922;SDS011;8578;50.938;13.556;2022-10-16T08:59:00;0.60;;;0.60;;
16922;SDS011;8578;50.938;13.556;2022-10-16T09:01:32;1.93;;;0.50;;
16922;SDS011;8578;50.938;13.556;2022-10-16T09:04:06;0.90;;;0.40;;
16922;SDS011;8578;50.938;13.556;2022-10-16T09:06:39;0.43;;;0.43;;
16922;SDS011;8578;50.938;13.556;2022-10-16T09:09:17;0.60;;;0.53;;
16922;SDS011;8578;50.938;13.556;2022-10-16T09:11:48;0.73;;;0.60;;
16922;SDS011;8578;50.938;13.556;2022-10-16T09:14:22;0.70;;;0.50;;
16922;SDS011;8578;50.938;13.556;2022-10-16T09:16:52;0.57;;;0.40;;
16922;SDS011;8578;50.938;13.556;2022-10-16T09:19:22;0.60;;;0.50;;
16922;SDS011;8578;50.938;13.556;2022-10-16T09:21:52;0.63;;;0.40;;
16922;SDS011;8578;50.938;13.556;2022-10-16T09:24:22;0.70;;;0.40;;
16922;SDS011;8578;50.938;13.556;2022-10-16T09:26:54;0.70;;;0.47;;
16922;SDS011;8578;50.938;13.556;2022-10-16T09:29:22;0.50;;;0.47;;
16922;SDS011;8578;50.938;13.556;2022-10-16T09:31:51;0.80;;;0.50;;
16922;SDS011;8578;50.938;13.556;2022-10-16T09:34:21;0.47;;;0.37;;
16922;SDS011;8578;50.938;13.556;2022-10-16T09:36:53;2.43;;;0.40;;
16922;SDS011;8578;50.938;13.556;2022-10-16T09:39:22;0.60;;;0.43;;
16922;SDS011;8578;50.938;13.556;2022-10-16T09:41:49;0.33;;;0.33;;
16922;SDS011;8578;50.938;13.556;2022-10-16T09:44:18;0.40;;;0.40;;
16922;SDS011;8578;50.938;13.556;2022-10-16T09:46:46;0.60;;;0.40;;
16922;SDS011;8578;50.938;13.556;2022-10-16T09:49:21;1.13;;;0.50;;
16922;SDS011;8578;50.938;13.556;2022-10-16T09:51:49;0.50;;;0.40;;
16922;SDS011;8578;50.938;13.556;2022-10-16T09:54:19;0.40;;;0.40;;
16922;SDS011;8578;50.938;13.556;2022-10-16T09:56:47;1.57;;;0.50;;
16922;SDS011;8578;50.938;13.556;2022-10-16T09:59:18;0.77;;;0.40;;
16922;SDS011;8578;50.938;13.556;2022-10-16T10:01:47;0.70;;;0.40;;
16922;SDS011;8578;50.938;13.556;2022-10-16T10:04:15;0.37;;;0.37;;
16922;SDS011;8578;50.938;13.556;2022-10-16T10:06:43;1.90;;;0.40;;
16922;SDS011;8578;50.938;13.556;2022-10-16T10:09:19;1.33;;;0.57;;
16922;SDS011;8578;50.938;13.556;2022-10-16T10:11:48;0.50;;;0.50;;
16922;SDS011;8578;50.938;13.556;2022-10-16T10:14:18;1.80;;;0.47;;
16922;SDS011;8578;50.938;13.556;2022-10-16T10:16:47;1.60;;;0.40;;
16922;SDS011;8578;50.938;13.556;2022-10-16T10:19:15;0.43;;;0.43;;
16922;SDS011;8578;50.938;13.556;2022-10-16T10:21:43;0.40;;;0.40;;
16922;SDS011;8578;50.938;13.556;2022-10-16T10:24:11;0.40;;;0.40;;
16922;SDS011;8578;50.938;13.556;2022-10-16T10:26:41;0.60;;;0.30;;
16922;SDS011;8578;50.938;13.556;2022-10-16T10:29:15;0.50;;;0.50;;
16922;SDS011;8578;50.938;13.556;2022-10-16T10:31:47;2.27;;;0.50;;
16922;SDS011;8578;50.938;13.556;2022-10-16T10:34:20;1.67;;;0.53;;
16922;SDS011;8578;50.938;13.556;2022-10-16T10:36:56;0.43;;;0.40;;
16922;SDS011;8578;50.938;13.556;2022-10-16T10:39:27;2.40;;;0.40;;
16922;SDS011;8578;50.938;13.556;2022-10-16T10:42:08;0.50;;;0.40;;
16922;SDS011;8578;50.938;13.556;2022-10-16T10:44:45;0.43;;;0.40;;
16922;SDS011;8578;50.938;13.556;2022-10-16T10:47:17;1.73;;;0.40;;
16922;SDS011;8578;50.938;13.556;2022-10-16T10:49:51;1.07;;;0.67;;
16922;SDS011;8578;50.938;13.556;2022-10-16T10:52:27;1.30;;;0.40;;
16922;SDS011;8578;50.938;13.556;2022-10-16T10:54:59;1.33;;;0.50;;
16922;SDS011;8578;50.938;13.556;2022-10-16T10:57:33;1.13;;;0.40;;
16922;SDS011;8578;50.938;13.556;2022-10-16T11:00:11;2.53;;;0.50;;
16922;SDS011;8578;50.938;13.556;2022-10-16T11:02:45;0.30;;;0.30;;
16922;SDS011;8578;50.938;13.556;2022-10-16T11:05:23;0.93;;;0.30;;
16922;SDS011;8578;50.938;13.556;2022-10-16T11:07:54;0.40;;;0.30;;
16922;SDS011;8578;50.938;13.556;2022-10-16T11:10:26;0.33;;;0.30;;
16922;SDS011;8578;50.938;13.556;2022-10-16T11:12:57;2.93;;;0.40;;
16922;SDS011;8578;50.938;13.556;2022-10-16T11:15:27;0.60;;;0.40;;
16922;SDS011;8578;50.938;13.556;2022-10-16T11:17:57;0.40;;;0.37;;
16922;SDS011;8578;50.938;13.556;2022-10-16T11:20:26;0.63;;;0.40;;
16922;SDS011;8578;50.938;13.556;2022-10-16T11:22:56;0.80;;;0.30;;
16922;SDS011;8578;50.938;13.556;2022-10-16T11:25:26;0.53;;;0.40;;
16922;SDS011;8578;50.938;13.556;2022-10-16T11:27:56;0.33;;;0.30;;
16922;SDS011;8578;50.938;13.556;2022-10-16T11:30:26;0.73;;;0.40;;
16922;SDS011;8578;50.938;13.556;2022-10-16T11:32:59;0.50;;;0.40;;
16922;SDS011;8578;50.938;13.556;2022-10-16T11:35:32;0.53;;;0.30;;
16922;SDS011;8578;50.938;13.556;2022-10-16T11:38:01;0.80;;;0.40;;
16922;SDS011;8578;50.938;13.556;2022-10-16T11:40:31;0.50;;;0.30;;
16922;SDS011;8578;50.938;13.556;2022-10-16T11:43:02;1.63;;;0.37;;
16922;SDS011;8578;50.938;13.556;2022-10-16T11:45:33;0.57;;;0.40;;
16922;SDS011;8578;50.938;13.556;2022-10-16T11:48:04;1.80;;;0.40;;
16922;SDS011;8578;50.938;13.556;2022-10-16T11:50:35;1.47;;;0.37;;
16922;SDS011;8578;50.938;13.556;2022-10-16T11:53:04;0.30;;;0.30;;
16922;SDS011;8578;50.938;13.556;2022-10-16T11:55:36;1.70;;;0.40;;
16922;SDS011;8578;50.938;13.556;2022-10-16T11:58:13;0.30;;;0.30;;
16922;SDS011;8578;50.938;13.556;2022-10-16T12:00:44;0.60;;;0.40;;
16922;SDS011;8578;50.938;13.556;2022-10-16T12:03:16;2.93;;;0.40;;
16922;SDS011;8578;50.938;13.556;2022-10-16T12:05:51;0.30;;;0.30;;
16922;SDS011;8578;50.938;13.556;2022-10-16T12:08:19;0.30;;;0.30;;
16922;SDS011;8578;50.938;13.556;2022-10-16T12:10:48;0.57;;;0.37;;
16922;SDS011;8578;50.938;13.556;2022-10-16T12:13:29;0.30;;;0.30;;
16922;SDS011;8578;50.938;13.556;2022-10-16T12:16:04;3.73;;;0.40;;
16922;SDS011;8578;50.938;13.556;2022-10-16T12:18:32;0.40;;;0.40;;
16922;SDS011;8578;50.938;13.556;2022-10-16T12:20:59;0.47;;;0.47;;
16922;SDS011;8578;50.938;13.556;2022-10-16T12:23:31;2.00;;;0.43;;
16922;SDS011;8578;50.938;13.556;2022-10-16T12:25:59;1.70;;;0.40;;
16922;SDS011;8578;50.938;13.556;2022-10-16T12:28:30;0.50;;;0.37;;
16922;SDS011;8578;50.938;13.556;2022-10-16T12:30:59;0.40;;;0.40;;
16922;SDS011;8578;50.938;13.556;2022-10-16T12:33:28;3.60;;;0.40;;
16922;SDS011;8578;50.938;13.556;2022-10-16T12:35:56;0.40;;;0.40;;
16922;SDS011;8578;50.938;13.556;2022-10-16T12:38:25;1.53;;;0.50;;
16922;SDS011;8578;50.938;13.556;2022-10-16T12:40:58;0.47;;;0.40;;
16922;SDS011;8578;50.938;13.556;2022-10-16T12:43:38;0.93;;;0.40;;
16922;SDS011;8578;50.938;13.556;2022-10-16T12:46:20;0.30;;;0.30;;
16922;SDS011;8578;50.938;13.556;2022-10-16T12:48:48;0.87;;;0.50;;
16922;SDS011;8578;50.938;13.556;2022-10-16T12:51:34;0.60;;;0.40;;
16922;SDS011;8578;50.938;13.556;2022-10-16T12:54:02;1.37;;;0.53;;
16922;SDS011;8578;50.938;13.556;2022-10-16T12:56:34;0.40;;;0.40;;
16922;SDS011;8578;50.938;13.556;2022-10-16T12:59:14;0.50;;;0.47;;
16922;SDS011;8578;50.938;13.556;2022-10-16T13:01:49;0.60;;;0.40;;
16922;SDS011;8578;50.938;13.556;2022-10-16T13:07:11;0.67;;;0.50;;
16922;SDS011;8578;50.938;13.556;2022-10-16T13:09:45;2.00;;;0.30;;
16922;SDS011;8578;50.938;13.556;2022-10-16T13:12:23;0.90;;;0.53;;
16922;SDS011;8578;50.938;13.556;2022-10-16T13:15:00;0.50;;;0.50;;
16922;SDS011;8578;50.938;13.556;2022-10-16T13:17:30;2.10;;;0.60;;
16922;SDS011;8578;50.938;13.556;2022-10-16T13:20:04;3.33;;;0.50;;
16922;SDS011;8578;50.938;13.556;2022-10-16T13:22:38;1.53;;;0.50;;
16922;SDS011;8578;50.938;13.556;2022-10-16T13:25:13;0.43;;;0.40;;
16922;SDS011;8578;50.938;13.556;2022-10-16T13:27:45;0.80;;;0.50;;
16922;SDS011;8578;50.938;13.556;2022-10-16T13:30:15;0.60;;;0.40;;
16922;SDS011;8578;50.938;13.556;2022-10-16T13:32:45;0.50;;;0.40;;
16922;SDS011;8578;50.938;13.556;2022-10-16T13:35:23;0.40;;;0.40;;
16922;SDS011;8578;50.938;13.556;2022-10-16T13:37:51;1.23;;;0.37;;
16922;SDS011;8578;50.938;13.556;2022-10-16T13:40:29;0.57;;;0.57;;
16922;SDS011;8578;50.938;13.556;2022-10-16T13:42:59;0.63;;;0.50;;
16922;SDS011;8578;50.938;13.556;2022-10-16T13:45:28;0.27;;;0.27;;
16922;SDS011;8578;50.938;13.556;2022-10-16T13:48:02;0.60;;;0.40;;
16922;SDS011;8578;50.938;13.556;2022-10-16T13:50:30;0.50;;;0.40;;
16922;SDS011;8578;50.938;13.556;2022-10-16T13:53:05;0.30;;;0.30;;
16922;SDS011;8578;50.938;13.556;2022-10-16T13:55:32;1.17;;;0.40;;
16922;SDS011;8578;50.938;13.556;2022-10-16T13:58:07;1.57;;;0.67;;
16922;SDS011;8578;50.938;13.556;2022-10-16T14:00:36;3.30;;;0.40;;
16922;SDS011;8578;50.938;13.556;2022-10-16T14:03:12;0.30;;;0.30;;
16922;SDS011;8578;50.938;13.556;2022-10-16T14:05:42;0.60;;;0.40;;
16922;SDS011;8578;50.938;13.556;2022-10-16T14:08:10;0.30;;;0.30;;
16922;SDS011;8578;50.938;13.556;2022-10-16T14:10:38;1.57;;;0.40;;
16922;SDS011;8578;50.938;13.556;2022-10-16T14:13:06;1.13;;;0.30;;
16922;SDS011;8578;50.938;13.556;2022-10-16T14:15:35;0.57;;;0.40;;
16922;SDS011;8578;50.938;13.556;2022-10-16T14:18:05;0.73;;;0.30;;
16922;SDS011;8578;50.938;13.556;2022-10-16T14:20:33;1.80;;;0.47;;
16922;SDS011;8578;50.938;13.556;2022-10-16T14:23:01;0.20;;;0.20;;
16922;SDS011;8578;50.938;13.556;2022-10-16T14:25:30;0.50;;;0.30;;
16922;SDS011;8578;50.938;13.556;2022-10-16T14:27:59;0.30;;;0.20;;
16922;SDS011;8578;50.938;13.556;2022-10-16T14:30:33;1.17;;;0.30;;
16922;SDS011;8578;50.938;13.556;2022-10-16T14:33:01;0.50;;;0.30;;
16922;SDS011;8578;50.938;13.556;2022-10-16T14:35:31;0.50;;;0.40;;
16922;SDS011;8578;50.938;13.556;2022-10-16T14:38:00;1.60;;;0.40;;
16922;SDS011;8578;50.938;13.556;2022-10-16T14:40:28;1.23;;;0.40;;
16922;SDS011;8578;50.938;13.556;2022-10-16T14:42:56;0.40;;;0.30;;
16922;SDS011;8578;50.938;13.556;2022-10-16T14:45:24;2.40;;;0.30;;
16922;SDS011;8578;50.938;13.556;2022-10-16T14:47:53;0.50;;;0.30;;
16922;SDS011;8578;50.938;13.556;2022-10-16T14:50:22;0.47;;;0.37;;
16922;SDS011;8578;50.938;13.556;2022-10-16T14:52:51;0.30;;;0.30;;
16922;SDS011;8578;50.938;13.556;2022-10-16T14:55:18;0.30;;;0.30;;
16922;SDS011;8578;50.938;13.556;2022-10-16T14:57:46;0.40;;;0.30;;
16922;SDS011;8578;50.938;13.556;2022-10-16T15:00:16;0.50;;;0.43;;
16922;SDS011;8578;50.938;13.556;2022-10-16T15:02:44;0.70;;;0.40;;
16922;SDS011;8578;50.938;13.556;2022-10-16T15:05:13;2.27;;;0.37;;